KSIK

Sikeston Memorial Municipal Airport

Sikeston, Missouri, USA
METAR KSIK 212155Z AUTO 23006KT 10SM SCT002 24/20 A2973 RMK AO2 LTG DSNT E
Observed Flight Rules
Jun-21 @ 21:55 UTC (12 minutes ago) Visual Flight Rules
Wind Visibility Clouds
230° at 6 knots 10 miles
  • Scattered at 200' AGL
Temperatures Readings
Current 24°C / 75°F
Dewpoint 20°C / 68°F
Humidity 78%
Altimeter 29.73" Hg
Pressure 1007 hPa
Elevation 96
METAR KSIK 212155Z AUTO 23006KT 10SM SCT002 24/20 A2973 RMK AO2 LTG DSNT E
Observed Flight Rules
Jun-21 @ 21:55 UTC
(12 minutes ago)
VFR
Wind Visibility
230° at 6 knots 10 miles
Clouds
  • Scattered at 200' AGL
Temperature Dewpoint
24°C / 75°F 20°C / 68°F
Humidity Altimeter Pressure
78% 29.73" Hg 1007 hPa